Blairsville, GA

6:57 PM EDT on May 27, 2015 (GMT -0400)
Old England | | Change Station
CLOSE
Current Station
Personal Weather Station
Location: Blairsville, GA
Elevation: 1883 ft
Nearby Weather Stations

Elev 1883 ft 34.90 °N, 84.03 °W | Updated 7 minutes ago

Clear
Clear
74.9 °F
Feels Like 77 °F
N
0.0
Wind Variable Wind from NNW
Gusts 0.0 mph

Today
High -- | Low -- °F
--% Chance of Precip.
Yesterday
High -- | Low -- °F
Precip. -- in
6:25 AM 8:41 PM
Waxing Gibbous, 71% visible
Pressure 30.19 in
Visibility 10.0 miles
Clouds Clear
Heat Index 77 °F
Dew Point 64 °F
Humidity 70%
Rainfall 0.00 in
Snow Depth Not available.
UV 3 out of 12
Pollen 2.80 out of 12
Air Quality Not available.
Flu Activity Sporadic
METAR KRHP 272215Z AUTO 27005KT 10SM CLR 27/15 A3019 RMK AO2 T02700154

More Conditions Fewer Conditions

Pressure 30.19 in
Visibility 10.0 miles
Clouds Clear
Heat Index 77 °F
Dew Point 64 °F
Humidity 70%
Rainfall 0.00 in
Snow Depth Not available.
UV 3 out of 12
Pollen 2.80 out of 12
Air Quality Not available.
Flu Activity Sporadic
METAR KRHP 272215Z AUTO 27005KT 10SM CLR 27/15 A3019 RMK AO2 T02700154

More Conditions Fewer Conditions

10-Day Weather Forecast

Almanac

Astronomy

May. 27, 2015 Rise Set
Actual Time
Civil Twilight
Nautical Twilight
Astronomical Twilight
Moon
Length of Visible Light
Length of Day
Tomorrow will be .
, % of the Moon is Illuminated

Today's Extremes

State Highs State Lows

Community

WunderPhotos

Upload Photos

1,824,814 photos uploaded!

WunderBlogs® & News

Nearby

Air Quality

  Air Quality AQ Index Pollutant
Not available.

Snow Depth

Station Depth Elevation

Earthquake Activity

City Distance Mag. Time & Date
Minimum magnitude displayed is 2.5.

Coastal Water Temperatures

Place Temperature

Stations

Nearby Weather Stations

Station Location Temp. Windchill Dew Point Humidity Wind Precip. Elev Updated Type